createdAt,value
2023-04-10T00:02:29.252Z,90.08
2023-04-10T00:05:31.858Z,89.55
2023-04-10T00:08:34.081Z,88.60
2023-04-10T00:11:36.524Z,87.77
2023-04-10T00:14:38.842Z,86.94
2023-04-10T00:17:41.350Z,86.35
2023-04-10T00:20:43.847Z,86.23
2023-04-10T00:23:46.311Z,86.09
2023-04-10T00:26:48.682Z,86.24
2023-04-10T00:29:51.019Z,86.07
2023-04-10T00:32:53.282Z,86.10
2023-04-10T00:35:55.601Z,86.20
2023-04-10T00:38:57.883Z,85.90
2023-04-10T00:42:01.545Z,85.40
2023-04-10T00:45:04.451Z,85.62
2023-04-10T00:48:07.042Z,85.51
2023-04-10T00:51:09.494Z,85.59
2023-04-10T00:54:12.380Z,85.92
2023-04-10T00:57:14.688Z,85.71
2023-04-10T01:00:17.778Z,85.48
2023-04-10T01:03:21.610Z,84.69
2023-04-10T01:07:09.194Z,84.96
2023-04-10T01:10:35.195Z,85.12
2023-04-10T01:14:01.906Z,85.07
2023-04-10T01:17:11.968Z,85.15
2023-04-10T01:20:19.307Z,85.63
2023-04-10T01:24:00.607Z,86.24
2023-04-10T01:27:12.479Z,87.09
2023-04-10T01:30:20.390Z,87.34
2023-04-10T01:33:29.890Z,87.00
2023-04-10T01:36:42.649Z,87.15
2023-04-10T01:39:53.153Z,87.55
2023-04-10T01:42:58.966Z,88.41
2023-04-10T01:46:11.369Z,89.08
2023-04-10T01:49:15.442Z,89.40
2023-04-10T01:52:19.357Z,89.93
2023-04-10T01:55:27.596Z,90.02
2023-04-10T01:58:41.144Z,89.50
2023-04-10T02:01:43.667Z,90.14
2023-04-10T02:04:51.582Z,90.64
2023-04-10T02:08:08.179Z,90.95
2023-04-10T02:11:23.213Z,91.12
2023-04-10T02:14:31.724Z,91.08
2023-04-10T02:17:36.318Z,90.70
2023-04-10T02:20:38.727Z,91.05
2023-04-10T02:23:41.640Z,90.90
2023-04-10T02:26:48.904Z,91.37
2023-04-10T02:29:51.603Z,91.55
2023-04-10T02:32:54.281Z,91.95
2023-04-10T02:35:56.589Z,91.37
2023-04-10T02:38:58.942Z,90.73
2023-04-10T02:42:01.764Z,90.10
2023-04-10T02:45:04.368Z,89.68
2023-04-10T02:48:12.788Z,90.34
2023-04-10T02:51:15.732Z,90.25
2023-04-10T02:54:18.153Z,90.64
2023-04-10T02:57:21.401Z,91.60
2023-04-10T03:00:23.794Z,91.22
2023-04-10T03:03:42.691Z,92.01
2023-04-10T03:06:45.621Z,91.77
2023-04-10T03:09:47.928Z,91.65
2023-04-10T03:12:50.771Z,92.20
2023-04-10T03:15:55.773Z,91.81
2023-04-10T03:18:58.281Z,91.68
2023-04-10T03:22:00.829Z,91.59
2023-04-10T03:25:03.100Z,91.60
2023-04-10T03:28:06.003Z,91.88
2023-04-10T03:31:08.337Z,92.18
2023-04-10T03:34:11.715Z,92.87
2023-04-10T03:37:14.058Z,92.70
2023-04-10T03:40:16.680Z,92.99
2023-04-10T03:43:18.961Z,92.29
2023-04-10T03:46:22.813Z,93.05
2023-04-10T03:49:26.400Z,92.89
2023-04-10T03:52:37.166Z,93.19
2023-04-10T03:55:41.279Z,92.83
2023-04-10T03:58:43.559Z,93.19
2023-04-10T04:01:46.568Z,93.44
2023-04-10T04:04:49.562Z,93.38
2023-04-10T04:08:10.363Z,93.50
2023-04-10T04:11:31.890Z,92.96
2023-04-10T04:14:38.565Z,93.46
2023-04-10T04:18:11.972Z,92.94
2023-04-10T04:21:17.274Z,93.55
2023-04-10T04:24:39.710Z,93.42
2023-04-10T04:27:52.262Z,93.50
2023-04-10T04:31:20.492Z,93.38
2023-04-10T04:34:42.953Z,93.02
2023-04-10T04:37:53.968Z,92.96
2023-04-10T04:41:16.391Z,92.50
2023-04-10T04:44:35.839Z,92.38
2023-04-10T04:48:04.053Z,92.42
2023-04-10T04:51:20.307Z,92.45
2023-04-10T04:54:26.766Z,92.16
2023-04-10T04:57:47.657Z,91.90
2023-04-10T05:00:59.621Z,91.26
2023-04-10T05:04:27.714Z,91.18
2023-04-10T05:07:34.531Z,90.56
2023-04-10T05:10:59.785Z,90.78
2023-04-10T05:14:14.169Z,89.84
2023-04-10T05:17:22.850Z,89.15
2023-04-10T05:20:38.426Z,89.32
2023-04-10T05:23:51.697Z,88.63
2023-04-10T05:27:23.049Z,87.59
2023-04-10T05:30:54.697Z,87.86
2023-04-10T05:34:23.253Z,86.90
2023-04-10T05:37:43.695Z,86.65
2023-04-10T05:41:00.684Z,86.09
2023-04-10T05:44:26.079Z,84.25
2023-04-10T05:47:45.584Z,81.86
2023-04-10T05:51:01.345Z,80.62
2023-04-10T05:54:11.469Z,79.68
2023-04-10T05:57:27.011Z,77.88
2023-04-10T06:00:48.103Z,74.95
2023-04-10T06:04:10.078Z,74.48
2023-04-10T06:07:13.703Z,74.34
2023-04-10T06:10:16.061Z,72.23
2023-04-10T06:13:18.406Z,70.53
2023-04-10T06:16:21.506Z,70.01
2023-04-10T06:19:24.166Z,70.76
2023-04-10T06:22:26.940Z,71.00
2023-04-10T06:25:29.262Z,68.72
2023-04-10T06:28:31.820Z,67.21
2023-04-10T06:31:37.093Z,65.34
2023-04-10T06:34:39.508Z,64.77
2023-04-10T06:37:44.124Z,64.33
2023-04-10T06:40:46.551Z,61.79
2023-04-10T06:43:48.835Z,61.98
2023-04-10T06:46:51.109Z,62.72
2023-04-10T06:49:53.391Z,61.78
2023-04-10T06:52:56.468Z,59.00
2023-04-10T06:56:00.264Z,58.44
2023-04-10T06:59:04.960Z,58.35
2023-04-10T07:02:07.901Z,58.45
2023-04-10T07:05:10.372Z,55.98
2023-04-10T07:08:12.661Z,57.15
2023-04-10T07:11:15.138Z,54.98
2023-04-10T07:14:17.359Z,51.91
2023-04-10T07:17:19.710Z,52.55
2023-04-10T07:20:22.139Z,50.98
2023-04-10T07:23:24.433Z,51.25
2023-04-10T07:26:26.763Z,51.72
2023-04-10T07:29:29.151Z,49.74
2023-04-10T07:32:32.624Z,46.80
2023-04-10T07:35:35.144Z,46.66
2023-04-10T07:38:38.824Z,44.52
2023-04-10T07:41:41.085Z,44.78
2023-04-10T07:44:43.540Z,44.30
2023-04-10T07:47:45.820Z,43.89
2023-04-10T07:50:48.239Z,41.95
2023-04-10T07:53:50.603Z,42.21
2023-04-10T07:56:53.427Z,41.88
2023-04-10T07:59:55.899Z,40.44
2023-04-10T08:02:58.466Z,39.14
2023-04-10T08:06:00.908Z,38.86
2023-04-10T08:09:03.342Z,38.93
2023-04-10T08:12:05.767Z,36.94
2023-04-10T08:15:08.417Z,38.61
2023-04-10T08:18:10.787Z,39.57
2023-04-10T08:21:12.999Z,40.19
2023-04-10T08:24:15.782Z,38.50
2023-04-10T08:27:18.220Z,36.96
2023-04-10T08:30:20.491Z,36.44
2023-04-10T08:33:22.853Z,35.91
2023-04-10T08:36:25.159Z,34.18
2023-04-10T08:39:27.416Z,32.72
2023-04-10T08:42:31.932Z,33.85
2023-04-10T08:45:35.530Z,33.65
2023-04-10T08:49:05.036Z,32.64
2023-04-10T08:52:18.098Z,31.63
2023-04-10T08:55:21.606Z,32.94
2023-04-10T08:58:28.340Z,33.32
2023-04-10T09:01:31.371Z,31.77
2023-04-10T09:04:34.909Z,32.42
2023-04-10T09:07:37.275Z,32.88
2023-04-10T09:10:39.683Z,32.25
2023-04-10T09:13:45.129Z,30.48
2023-04-10T09:16:47.479Z,31.86
2023-04-10T09:19:55.126Z,30.07
2023-04-10T09:22:57.688Z,28.71
2023-04-10T09:25:59.974Z,30.30
2023-04-10T09:29:03.426Z,33.06
2023-04-10T09:32:06.020Z,34.29
2023-04-10T09:35:09.828Z,33.97
2023-04-10T09:38:19.942Z,33.67
2023-04-10T09:41:22.376Z,33.41
2023-04-10T09:44:37.376Z,31.98
2023-04-10T09:47:39.720Z,30.24
2023-04-10T09:50:42.350Z,31.44
2023-04-10T09:53:51.079Z,32.51
2023-04-10T09:56:53.910Z,32.76
2023-04-10T09:59:58.730Z,33.75
2023-04-10T10:03:03.458Z,34.99
2023-04-10T10:06:06.502Z,35.14
2023-04-10T10:09:09.350Z,35.96
2023-04-10T10:12:14.730Z,35.51
2023-04-10T10:15:22.139Z,35.45
2023-04-10T10:18:45.407Z,35.57
2023-04-10T10:21:48.610Z,36.08
2023-04-10T10:24:56.613Z,37.18
2023-04-10T10:28:02.868Z,38.18
2023-04-10T10:31:06.835Z,37.76
2023-04-10T10:34:09.963Z,37.74
2023-04-10T10:37:12.708Z,36.54
2023-04-10T10:40:33.877Z,37.40
2023-04-10T10:43:58.765Z,37.95
2023-04-10T10:47:23.228Z,38.28
2023-04-10T10:50:25.721Z,38.48
2023-04-10T10:53:37.223Z,40.02
2023-04-10T10:56:39.488Z,39.91
2023-04-10T10:59:47.832Z,39.45
2023-04-10T11:03:13.093Z,39.79
2023-04-10T11:06:19.344Z,40.63
2023-04-10T11:09:48.519Z,42.05
2023-04-10T11:13:17.365Z,42.35
2023-04-10T11:16:21.504Z,43.58
2023-04-10T11:19:26.447Z,43.62
2023-04-10T11:22:29.055Z,42.65
2023-04-10T11:26:07.405Z,42.94
2023-04-10T11:29:21.365Z,42.02
2023-04-10T11:32:23.627Z,41.73
2023-04-10T11:35:28.071Z,42.77
2023-04-10T11:38:30.734Z,43.94
2023-04-10T11:41:34.794Z,43.48
2023-04-10T11:44:39.474Z,43.31
2023-04-10T11:47:41.858Z,42.49
2023-04-10T11:50:44.291Z,43.74
2023-04-10T11:53:46.701Z,46.42
2023-04-10T11:57:14.616Z,44.61
2023-04-10T12:00:24.421Z,44.37
2023-04-10T12:03:38.794Z,45.27
2023-04-10T12:06:45.595Z,47.66
2023-04-10T12:09:56.772Z,48.23
2023-04-10T12:13:01.125Z,49.13
2023-04-10T12:16:12.649Z,50.63
2023-04-10T12:19:16.824Z,49.68
2023-04-10T12:22:19.438Z,47.98
2023-04-10T12:25:21.718Z,46.79
2023-04-10T12:28:24.013Z,45.56
2023-04-10T12:31:35.027Z,46.76
2023-04-10T12:34:37.771Z,46.19
2023-04-10T12:37:54.397Z,45.50
2023-04-10T12:41:00.576Z,43.74
2023-04-10T12:44:14.120Z,43.45
2023-04-10T12:47:16.345Z,43.96
2023-04-10T12:50:21.059Z,43.07
2023-04-10T12:53:24.271Z,43.79
2023-04-10T12:56:26.564Z,42.21
2023-04-10T12:59:30.389Z,41.46
2023-04-10T13:02:33.121Z,40.68
2023-04-10T13:05:35.728Z,42.29
2023-04-10T13:08:38.052Z,42.71
2023-04-10T13:11:41.278Z,42.25
2023-04-10T13:14:43.661Z,42.57
2023-04-10T13:17:46.016Z,42.97
2023-04-10T13:20:48.357Z,42.68
2023-04-10T13:23:50.727Z,42.74
2023-04-10T13:26:53.584Z,43.05
2023-04-10T13:29:55.861Z,43.09
2023-04-10T13:32:58.212Z,42.62
2023-04-10T13:36:00.629Z,43.78
2023-04-10T13:39:03.205Z,42.60
2023-04-10T13:42:05.722Z,42.55
2023-04-10T13:45:08.366Z,42.23
2023-04-10T13:48:10.874Z,41.65
2023-04-10T13:51:13.299Z,41.19
2023-04-10T13:54:17.544Z,41.77
2023-04-10T13:57:19.838Z,41.56
2023-04-10T14:00:22.243Z,41.12
2023-04-10T14:03:24.608Z,40.76
2023-04-10T14:06:27.296Z,40.48
2023-04-10T14:09:29.720Z,40.71
2023-04-10T14:12:31.977Z,40.73
2023-04-10T14:15:34.770Z,40.02
2023-04-10T14:18:37.470Z,40.96
2023-04-10T14:21:41.062Z,40.16
2023-04-10T14:24:43.453Z,40.03
2023-04-10T14:27:45.959Z,39.97
2023-04-10T14:30:49.901Z,39.93
2023-04-10T14:33:52.452Z,39.28
2023-04-10T14:36:56.078Z,39.24
2023-04-10T14:39:58.411Z,39.56
2023-04-10T14:43:00.758Z,39.25
2023-04-10T14:46:03.021Z,39.42
2023-04-10T14:49:05.408Z,39.52
2023-04-10T14:52:08.685Z,39.39
2023-04-10T14:55:11.844Z,40.05
2023-04-10T14:58:14.181Z,39.82
2023-04-10T15:01:17.524Z,39.41
2023-04-10T15:04:20.398Z,38.72
2023-04-10T15:07:24.117Z,39.64
2023-04-10T15:10:28.557Z,38.54
2023-04-10T15:13:31.343Z,39.36
2023-04-10T15:16:33.592Z,38.93
2023-04-10T15:19:35.927Z,38.77
2023-04-10T15:22:38.238Z,39.40
2023-04-10T15:25:40.528Z,39.67
2023-04-10T15:28:43.324Z,39.73
2023-04-10T15:31:45.775Z,39.39
2023-04-10T15:34:47.985Z,40.57
2023-04-10T15:37:50.250Z,40.36
2023-04-10T15:40:52.576Z,39.67
2023-04-10T15:43:55.089Z,39.85
2023-04-10T15:46:57.456Z,39.72
2023-04-10T15:50:00.979Z,39.95
2023-04-10T15:53:03.508Z,40.51
2023-04-10T15:56:07.059Z,39.95
2023-04-10T15:59:09.349Z,39.62
2023-04-10T16:02:11.757Z,38.61
2023-04-10T16:05:14.186Z,38.74
2023-04-10T16:08:16.513Z,38.20
2023-04-10T16:11:19.310Z,38.43
2023-04-10T16:14:22.594Z,38.54
2023-04-10T16:17:25.077Z,39.63
2023-04-10T16:20:27.345Z,38.65
2023-04-10T16:23:29.660Z,39.34
2023-04-10T16:26:31.861Z,39.39
2023-04-10T16:29:35.037Z,39.82
2023-04-10T16:32:38.000Z,39.19
2023-04-10T16:35:40.425Z,39.34
2023-04-10T16:38:43.642Z,39.57
2023-04-10T16:41:45.965Z,39.71
2023-04-10T16:44:48.224Z,39.93
2023-04-10T16:47:50.600Z,40.39
2023-04-10T16:50:52.982Z,40.29
2023-04-10T16:53:55.236Z,41.09
2023-04-10T16:56:57.694Z,40.71
2023-04-10T17:00:00.086Z,40.83
2023-04-10T17:03:03.162Z,41.66
2023-04-10T17:06:05.969Z,41.97
2023-04-10T17:09:08.366Z,42.53
2023-04-10T17:12:10.688Z,42.89
2023-04-10T17:15:13.116Z,42.87
2023-04-10T17:18:15.530Z,42.93
2023-04-10T17:21:17.892Z,43.70
2023-04-10T17:24:22.343Z,43.83
2023-04-10T17:27:24.726Z,43.94
2023-04-10T17:30:27.259Z,44.30
2023-04-10T17:33:29.523Z,44.84
2023-04-10T17:36:32.617Z,44.96
2023-04-10T17:39:34.877Z,45.27
2023-04-10T17:42:37.124Z,45.27
2023-04-10T17:45:40.084Z,45.85
2023-04-10T17:48:43.711Z,46.47
2023-04-10T17:51:46.043Z,46.39
2023-04-10T17:54:48.476Z,47.06
2023-04-10T17:57:51.702Z,47.19
2023-04-10T18:00:54.099Z,46.74
2023-04-10T18:03:57.292Z,47.28
2023-04-10T18:06:59.675Z,47.04
2023-04-10T18:10:01.964Z,46.76
2023-04-10T18:13:04.678Z,47.41
2023-04-10T18:16:07.823Z,48.49
2023-04-10T18:19:10.315Z,49.19
2023-04-10T18:22:12.600Z,49.14
2023-04-10T18:25:18.008Z,49.83
2023-04-10T18:28:21.375Z,49.64
2023-04-10T18:31:24.157Z,50.19
2023-04-10T18:34:26.488Z,50.96
2023-04-10T18:37:28.975Z,50.56
2023-04-10T18:40:31.350Z,51.84
2023-04-10T18:43:34.060Z,54.53
2023-04-10T18:46:36.468Z,58.54
2023-04-10T18:49:38.790Z,60.18
2023-04-10T18:52:41.077Z,61.09
2023-04-10T18:55:50.258Z,61.55
2023-04-10T18:58:52.644Z,62.30
2023-04-10T19:01:55.535Z,65.21
2023-04-10T19:04:57.911Z,65.72
2023-04-10T19:08:04.308Z,66.00
2023-04-10T19:11:07.927Z,64.61
2023-04-10T19:14:10.202Z,65.37
2023-04-10T19:17:12.498Z,64.73
2023-04-10T19:20:16.899Z,64.18
2023-04-10T19:23:39.140Z,64.20
2023-04-10T19:26:41.396Z,63.34
2023-04-10T19:29:44.050Z,65.40
2023-04-10T19:32:46.571Z,65.24
2023-04-10T19:35:48.968Z,65.08
2023-04-10T19:38:51.380Z,67.73
2023-04-10T19:41:53.746Z,67.83
2023-04-10T19:44:56.038Z,69.84
2023-04-10T19:48:00.252Z,71.28
2023-04-10T19:51:06.237Z,70.65
2023-04-10T19:54:08.518Z,70.81
2023-04-10T19:57:11.233Z,72.70
2023-04-10T20:00:13.938Z,72.93
2023-04-10T20:03:16.986Z,72.82
2023-04-10T20:06:21.450Z,72.22
2023-04-10T20:09:23.896Z,72.40
2023-04-10T20:12:26.161Z,72.37
2023-04-10T20:15:28.449Z,72.36
2023-04-10T20:18:32.167Z,71.71
2023-04-10T20:21:34.605Z,71.22
2023-04-10T20:24:36.895Z,73.43
2023-04-10T20:27:39.130Z,73.76
2023-04-10T20:30:41.457Z,75.11
2023-04-10T20:33:43.746Z,76.95
2023-04-10T20:36:46.026Z,77.64
2023-04-10T20:39:49.185Z,79.17
2023-04-10T20:42:52.786Z,79.03
2023-04-10T20:45:55.027Z,79.62
2023-04-10T20:48:59.272Z,80.22
2023-04-10T20:52:01.633Z,80.64
2023-04-10T20:55:04.164Z,80.29
2023-04-10T20:58:06.937Z,81.42
2023-04-10T21:01:10.184Z,81.37
2023-04-10T21:04:12.636Z,81.53
2023-04-10T21:07:14.938Z,83.29
2023-04-10T21:10:17.302Z,83.29
2023-04-10T21:13:19.604Z,83.89
2023-04-10T21:16:21.987Z,84.37
2023-04-10T21:19:24.232Z,85.12
2023-04-10T21:22:29.047Z,83.86
2023-04-10T21:25:33.119Z,85.03
2023-04-10T21:28:35.539Z,86.23
2023-04-10T21:31:37.840Z,86.01
2023-04-10T21:34:40.275Z,84.50
2023-04-10T21:37:42.528Z,83.94
2023-04-10T21:40:54.360Z,84.47
2023-04-10T21:44:00.341Z,85.94
2023-04-10T21:47:02.744Z,85.83
2023-04-10T21:50:05.604Z,85.51
2023-04-10T21:53:08.079Z,85.89
2023-04-10T21:56:10.386Z,86.49
2023-04-10T21:59:12.587Z,87.12
2023-04-10T22:02:14.959Z,86.75
2023-04-10T22:05:17.506Z,87.27
2023-04-10T22:08:20.300Z,87.86
2023-04-10T22:11:22.626Z,87.84
2023-04-10T22:14:25.760Z,87.84
2023-04-10T22:17:28.134Z,88.24
2023-04-10T22:20:30.503Z,89.11
2023-04-10T22:23:32.824Z,89.77
2023-04-10T22:26:35.318Z,88.61
2023-04-10T22:29:37.609Z,89.35
2023-04-10T22:32:40.075Z,89.48
2023-04-10T22:35:45.422Z,89.93
2023-04-10T22:38:47.753Z,90.04
2023-04-10T22:41:50.302Z,90.22
2023-04-10T22:44:52.613Z,90.90
2023-04-10T22:47:54.946Z,90.83
2023-04-10T22:50:57.248Z,90.79
2023-04-10T22:53:59.489Z,89.97
2023-04-10T22:57:01.752Z,89.85
2023-04-10T23:00:04.416Z,88.91
2023-04-10T23:03:06.878Z,89.36
2023-04-10T23:06:09.518Z,89.81
2023-04-10T23:09:11.830Z,89.99
2023-04-10T23:12:14.124Z,90.51
2023-04-10T23:15:16.613Z,90.27
2023-04-10T23:18:19.624Z,89.46
2023-04-10T23:21:21.920Z,89.33
2023-04-10T23:24:24.189Z,89.41
2023-04-10T23:27:26.442Z,90.02
2023-04-10T23:30:29.107Z,90.43
2023-04-10T23:33:31.383Z,89.92
2023-04-10T23:36:33.605Z,90.60
2023-04-10T23:39:35.846Z,90.53
2023-04-10T23:42:38.346Z,89.76
2023-04-10T23:45:41.310Z,90.12
2023-04-10T23:48:43.641Z,90.18
2023-04-10T23:51:46.001Z,90.95
2023-04-10T23:54:48.308Z,89.86
2023-04-10T23:57:50.740Z,90.19
